createdAt,value
2018-02-04T00:02:08.767Z,25.15
2018-02-04T00:04:41.818Z,25.29
2018-02-04T00:07:13.379Z,25.46
2018-02-04T00:09:44.685Z,25.46
2018-02-04T00:12:15.764Z,25.19
2018-02-04T00:14:46.763Z,25.62
2018-02-04T00:17:17.695Z,25.07
2018-02-04T00:19:48.842Z,25.54
2018-02-04T00:22:26.769Z,24.87
2018-02-04T00:24:57.889Z,25.36
2018-02-04T00:27:29.040Z,25.35
2018-02-04T00:30:00.158Z,25.48
2018-02-04T00:32:32.195Z,25.80
2018-02-04T00:35:03.717Z,25.06
2018-02-04T00:37:34.784Z,25.69
2018-02-04T00:40:05.751Z,25.59
2018-02-04T00:42:36.895Z,25.23
2018-02-04T00:45:08.235Z,25.88
2018-02-04T00:47:40.917Z,25.63
2018-02-04T00:50:12.110Z,26.12
2018-02-04T00:52:43.297Z,25.98
2018-02-04T00:55:14.420Z,25.44
2018-02-04T00:57:45.381Z,26.04
2018-02-04T01:00:16.980Z,26.31
2018-02-04T01:02:48.094Z,26.67
2018-02-04T01:05:21.040Z,26.62
2018-02-04T01:07:52.663Z,27.44
2018-02-04T01:10:24.000Z,27.39
2018-02-04T01:12:56.532Z,27.45
2018-02-04T01:15:27.456Z,28.28
2018-02-04T01:17:58.253Z,28.75
2018-02-04T01:20:29.832Z,28.11
2018-02-04T01:23:01.849Z,28.37
2018-02-04T01:25:35.471Z,29.03
2018-02-04T01:28:06.162Z,29.39
2018-02-04T01:30:37.689Z,29.34
2018-02-04T01:33:09.034Z,29.69
2018-02-04T01:35:40.574Z,29.75
2018-02-04T01:38:11.493Z,31.84
2018-02-04T01:40:43.255Z,31.81
2018-02-04T01:43:14.805Z,30.87
2018-02-04T01:45:46.120Z,30.34
2018-02-04T01:48:17.096Z,31.02
2018-02-04T01:50:48.204Z,30.35
2018-02-04T01:53:19.198Z,29.22
2018-02-04T01:55:51.074Z,28.21
2018-02-04T01:58:23.532Z,29.82
2018-02-04T02:00:55.193Z,30.69
2018-02-04T02:03:27.378Z,30.55
2018-02-04T02:05:58.384Z,30.77
2018-02-04T02:08:29.982Z,30.43
2018-02-04T02:11:01.579Z,30.05
2018-02-04T02:13:34.704Z,30.06
2018-02-04T02:16:05.847Z,30.46
2018-02-04T02:18:36.863Z,30.35
2018-02-04T02:21:08.112Z,29.84
2018-02-04T02:23:39.855Z,30.84
2018-02-04T02:26:10.807Z,30.20
2018-02-04T02:28:41.937Z,30.79
2018-02-04T02:31:13.284Z,30.73
2018-02-04T02:33:44.428Z,30.69
2018-02-04T02:36:15.594Z,31.00
2018-02-04T02:38:46.949Z,31.25
2018-02-04T02:41:18.267Z,31.23
2018-02-04T02:43:49.634Z,31.55
2018-02-04T02:46:21.018Z,31.58
2018-02-04T02:48:53.137Z,31.42
2018-02-04T02:51:24.069Z,31.17
2018-02-04T02:53:55.632Z,30.70
2018-02-04T02:56:26.783Z,30.50
2018-02-04T02:58:58.022Z,31.45
2018-02-04T03:01:29.571Z,31.56
2018-02-04T03:04:01.279Z,30.59
2018-02-04T03:06:33.044Z,31.62
2018-02-04T03:09:05.760Z,31.89
2018-02-04T03:11:36.949Z,32.13
2018-02-04T03:14:10.944Z,31.38
2018-02-04T03:16:43.338Z,32.42
2018-02-04T03:19:14.499Z,32.20
2018-02-04T03:21:45.808Z,32.06
2018-02-04T03:24:17.188Z,32.68
2018-02-04T03:26:48.417Z,33.57
2018-02-04T03:29:19.442Z,34.31
2018-02-04T03:31:50.580Z,33.10
2018-02-04T03:34:21.924Z,32.02
2018-02-04T03:36:53.480Z,32.82
2018-02-04T03:39:24.417Z,32.37
2018-02-04T03:41:55.406Z,32.48
2018-02-04T03:44:26.631Z,32.91
2018-02-04T03:46:57.645Z,32.58
2018-02-04T03:49:28.680Z,32.44
2018-02-04T03:51:59.875Z,32.83
2018-02-04T03:54:31.027Z,32.20
2018-02-04T03:57:02.116Z,33.06
2018-02-04T03:59:33.214Z,32.78
2018-02-04T04:02:04.393Z,32.60
2018-02-04T04:04:35.741Z,32.07
2018-02-04T04:07:07.507Z,32.02
2018-02-04T04:09:39.365Z,32.48
2018-02-04T04:12:11.736Z,32.46
2018-02-04T04:14:42.980Z,32.42
2018-02-04T04:17:15.477Z,32.63
2018-02-04T04:19:47.150Z,33.46
2018-02-04T04:22:18.873Z,33.38
2018-02-04T04:24:51.061Z,33.61
2018-02-04T04:27:23.318Z,33.81
2018-02-04T04:29:54.690Z,33.75
2018-02-04T04:32:25.992Z,33.73
2018-02-04T04:34:57.339Z,34.19
2018-02-04T04:37:28.993Z,34.69
2018-02-04T04:40:00.471Z,34.51
2018-02-04T04:42:32.225Z,35.36
2018-02-04T04:45:03.921Z,35.00
2018-02-04T04:47:35.470Z,35.70
2018-02-04T04:50:06.452Z,36.72
2018-02-04T04:52:38.114Z,36.44
2018-02-04T04:55:09.176Z,37.71
2018-02-04T04:57:40.156Z,37.34
2018-02-04T05:00:11.312Z,38.08
2018-02-04T05:02:42.644Z,37.37
2018-02-04T05:05:13.279Z,36.93
2018-02-04T05:07:44.477Z,37.80
2018-02-04T05:10:16.496Z,38.59
2018-02-04T05:12:47.564Z,38.34
2018-02-04T05:15:18.537Z,38.79
2018-02-04T05:17:49.909Z,38.65
2018-02-04T05:20:21.320Z,37.18
2018-02-04T05:22:52.667Z,38.79
2018-02-04T05:25:23.999Z,38.25
2018-02-04T05:27:55.058Z,37.64
2018-02-04T05:30:25.977Z,37.84
2018-02-04T05:32:57.183Z,38.26
2018-02-04T05:35:28.066Z,39.22
2018-02-04T05:37:59.913Z,39.27
2018-02-04T05:40:31.165Z,40.02
2018-02-04T05:43:02.167Z,39.94
2018-02-04T05:45:33.873Z,39.94
2018-02-04T05:48:05.064Z,41.19
2018-02-04T05:50:37.266Z,40.70
2018-02-04T05:53:08.605Z,41.63
2018-02-04T05:55:39.968Z,40.33
2018-02-04T05:58:10.702Z,41.15
2018-02-04T06:00:42.061Z,41.61
2018-02-04T06:03:13.195Z,42.01
2018-02-04T06:05:44.076Z,40.59
2018-02-04T06:08:14.876Z,40.70
2018-02-04T06:10:46.022Z,41.14
2018-02-04T06:13:17.157Z,42.34
2018-02-04T06:15:48.269Z,42.13
2018-02-04T06:18:19.036Z,41.55
2018-02-04T06:20:50.614Z,41.53
2018-02-04T06:23:21.729Z,41.37
2018-02-04T06:25:52.803Z,39.95
2018-02-04T06:28:23.918Z,41.25
2018-02-04T06:30:55.156Z,41.30
2018-02-04T06:33:26.240Z,41.61
2018-02-04T06:35:57.245Z,42.88
2018-02-04T06:38:28.463Z,41.80
2018-02-04T06:40:59.496Z,43.49
2018-02-04T06:43:30.472Z,42.13
2018-02-04T06:46:01.525Z,44.19
2018-02-04T06:48:32.520Z,43.90
2018-02-04T06:51:03.604Z,43.84
2018-02-04T06:53:34.571Z,44.74
2018-02-04T06:56:05.324Z,42.94
2018-02-04T06:58:36.322Z,43.96
2018-02-04T07:01:07.552Z,43.40
2018-02-04T07:03:38.810Z,42.78
2018-02-04T07:06:10.350Z,42.98
2018-02-04T07:08:41.700Z,42.81
2018-02-04T07:11:12.782Z,42.87
2018-02-04T07:13:44.433Z,42.65
2018-02-04T07:16:15.721Z,44.34
2018-02-04T07:18:47.147Z,44.47
2018-02-04T07:21:18.430Z,45.19
2018-02-04T07:23:49.784Z,43.40
2018-02-04T07:26:20.748Z,43.43
2018-02-04T07:28:51.835Z,44.70
2018-02-04T07:31:23.088Z,45.48
2018-02-04T07:33:54.194Z,45.77
2018-02-04T07:36:25.540Z,45.63
2018-02-04T07:38:56.674Z,44.42
2018-02-04T07:41:27.783Z,46.60
2018-02-04T07:43:58.728Z,45.27
2018-02-04T07:46:29.562Z,46.90
2018-02-04T07:49:00.788Z,45.81
2018-02-04T07:51:31.703Z,46.18
2018-02-04T07:54:02.689Z,44.87
2018-02-04T07:56:33.266Z,46.73
2018-02-04T07:59:04.612Z,46.74
2018-02-04T08:01:35.741Z,46.00
2018-02-04T08:04:06.796Z,46.25
2018-02-04T08:06:38.058Z,46.46
2018-02-04T08:09:09.164Z,45.30
2018-02-04T08:11:40.506Z,44.29
2018-02-04T08:14:11.659Z,44.87
2018-02-04T08:16:42.826Z,44.21
2018-02-04T08:19:13.945Z,43.46
2018-02-04T08:21:44.804Z,44.44
2018-02-04T08:24:15.829Z,44.30
2018-02-04T08:26:47.185Z,46.27
2018-02-04T08:29:18.521Z,44.33
2018-02-04T08:31:49.840Z,46.53
2018-02-04T08:34:20.988Z,47.62
2018-02-04T08:36:52.197Z,48.47
2018-02-04T08:39:23.308Z,48.90
2018-02-04T08:41:54.650Z,49.07
2018-02-04T08:44:25.892Z,47.17
2018-02-04T08:46:56.732Z,47.93
2018-02-04T08:49:27.836Z,47.79
2018-02-04T08:51:58.710Z,48.10
2018-02-04T08:54:30.009Z,48.31
2018-02-04T08:57:01.133Z,49.39
2018-02-04T08:59:32.265Z,48.53
2018-02-04T09:02:03.385Z,47.54
2018-02-04T09:04:34.294Z,46.00
2018-02-04T09:07:05.196Z,46.30
2018-02-04T09:09:36.510Z,46.89
2018-02-04T09:12:07.556Z,45.89
2018-02-04T09:14:38.737Z,45.88
2018-02-04T09:17:09.477Z,48.02
2018-02-04T09:19:40.774Z,46.27
2018-02-04T09:22:11.889Z,47.70
2018-02-04T09:24:42.870Z,49.48
2018-02-04T09:27:13.970Z,49.35
2018-02-04T09:29:45.074Z,49.68
2018-02-04T09:32:16.121Z,49.17
2018-02-04T09:34:47.244Z,47.26
2018-02-04T09:37:18.854Z,46.85
2018-02-04T09:39:49.753Z,48.41
2018-02-04T09:42:20.852Z,48.93
2018-02-04T09:44:52.775Z,49.81
2018-02-04T09:47:23.805Z,47.56
2018-02-04T09:49:54.885Z,47.67
2018-02-04T09:52:26.089Z,49.44
2018-02-04T09:54:57.416Z,47.80
2018-02-04T09:57:28.713Z,47.31
2018-02-04T09:59:59.933Z,48.99
2018-02-04T10:02:30.966Z,49.23
2018-02-04T10:05:01.810Z,48.55
2018-02-04T10:07:32.730Z,48.89
2018-02-04T10:10:03.821Z,50.97
2018-02-04T10:12:34.798Z,48.26
2018-02-04T10:15:05.760Z,48.77
2018-02-04T10:17:36.638Z,47.79
2018-02-04T10:20:07.614Z,49.95
2018-02-04T10:22:38.516Z,49.58
2018-02-04T10:25:09.520Z,47.82
2018-02-04T10:27:40.705Z,48.86
2018-02-04T10:30:12.190Z,51.15
2018-02-04T10:32:43.091Z,50.70
2018-02-04T10:35:13.877Z,50.84
2018-02-04T10:37:44.973Z,51.59
2018-02-04T10:40:16.355Z,50.86
2018-02-04T10:42:47.212Z,48.96
2018-02-04T10:45:18.215Z,51.69
2018-02-04T10:47:49.841Z,48.86
2018-02-04T10:50:21.209Z,48.29
2018-02-04T10:52:52.496Z,49.74
2018-02-04T10:55:23.667Z,51.00
2018-02-04T10:57:54.573Z,49.20
2018-02-04T11:00:25.995Z,48.04
2018-02-04T11:02:57.566Z,48.87
2018-02-04T11:05:28.766Z,48.62
2018-02-04T11:07:59.745Z,52.61
2018-02-04T11:10:30.920Z,53.22
2018-02-04T11:13:02.101Z,50.65
2018-02-04T11:15:33.452Z,49.54
2018-02-04T11:18:04.698Z,49.90
2018-02-04T11:20:35.708Z,49.69
2018-02-04T11:23:06.781Z,49.48
2018-02-04T11:25:37.788Z,49.43
2018-02-04T11:28:08.774Z,50.62
2018-02-04T11:30:40.304Z,52.42
2018-02-04T11:33:11.242Z,51.97
2018-02-04T11:35:42.905Z,50.97
2018-02-04T11:38:13.530Z,51.48
2018-02-04T11:40:44.646Z,52.26
2018-02-04T11:43:15.407Z,53.87
2018-02-04T11:45:46.969Z,54.70
2018-02-04T11:48:18.229Z,51.34
2018-02-04T11:50:49.193Z,50.82
2018-02-04T11:53:20.727Z,49.85
2018-02-04T11:55:52.098Z,52.65
2018-02-04T11:58:23.271Z,51.82
2018-02-04T12:00:54.615Z,52.44
2018-02-04T12:03:25.703Z,53.94
2018-02-04T12:05:57.069Z,53.57
2018-02-04T12:08:28.392Z,52.33
2018-02-04T12:10:59.278Z,51.19
2018-02-04T12:13:30.717Z,51.54
2018-02-04T12:16:01.604Z,51.85
2018-02-04T12:18:32.593Z,53.12
2018-02-04T12:21:03.698Z,53.50
2018-02-04T12:23:34.889Z,52.85
2018-02-04T12:26:05.997Z,54.84
2018-02-04T12:28:36.919Z,56.05
2018-02-04T12:31:07.842Z,52.29
2018-02-04T12:33:38.838Z,52.83
2018-02-04T12:36:09.956Z,50.82
2018-02-04T12:38:41.218Z,54.65
2018-02-04T12:41:12.901Z,52.77
2018-02-04T12:43:44.458Z,53.01
2018-02-04T12:46:15.716Z,53.05
2018-02-04T12:48:46.785Z,54.32
2018-02-04T12:51:18.321Z,55.61
2018-02-04T12:53:50.048Z,55.33
2018-02-04T12:56:21.633Z,54.50
2018-02-04T12:58:53.087Z,54.51
2018-02-04T13:01:23.898Z,53.08
2018-02-04T13:03:55.600Z,55.98
2018-02-04T13:06:26.560Z,54.52
2018-02-04T13:08:57.658Z,55.57
2018-02-04T13:11:29.088Z,54.46
2018-02-04T13:14:00.525Z,54.25
2018-02-04T13:16:31.588Z,55.28
2018-02-04T13:19:02.536Z,55.35
2018-02-04T13:21:33.690Z,55.20
2018-02-04T13:24:05.222Z,56.00
2018-02-04T13:26:36.146Z,54.91
2018-02-04T13:29:07.076Z,56.29
2018-02-04T13:31:38.261Z,57.67
2018-02-04T13:34:09.136Z,55.00
2018-02-04T13:36:40.131Z,56.59
2018-02-04T13:39:11.539Z,57.53
2018-02-04T13:41:42.392Z,56.92
2018-02-04T13:44:13.494Z,58.18
2018-02-04T13:46:44.577Z,57.29
2018-02-04T13:49:15.758Z,56.98
2018-02-04T13:51:46.776Z,56.99
2018-02-04T13:54:17.911Z,58.62
2018-02-04T13:56:49.292Z,58.76
2018-02-04T13:59:21.025Z,55.80
2018-02-04T14:01:52.346Z,56.13
2018-02-04T14:04:23.656Z,55.40
2018-02-04T14:06:55.060Z,54.29
2018-02-04T14:09:26.621Z,55.03
2018-02-04T14:11:57.724Z,53.13
2018-02-04T14:14:29.158Z,54.45
2018-02-04T14:17:00.505Z,52.46
2018-02-04T14:19:31.856Z,52.71
2018-02-04T14:22:02.748Z,52.40
2018-02-04T14:24:34.346Z,56.42
2018-02-04T14:27:05.878Z,57.04
2018-02-04T14:29:36.768Z,57.16
2018-02-04T14:32:07.956Z,58.72
2018-02-04T14:34:39.926Z,58.78
2018-02-04T14:37:11.471Z,58.32
2018-02-04T14:39:42.576Z,58.58
2018-02-04T14:42:13.537Z,59.25
2018-02-04T14:44:44.669Z,59.35
2018-02-04T14:47:15.854Z,59.03
2018-02-04T14:49:47.000Z,57.09
2018-02-04T14:52:18.358Z,57.29
2018-02-04T14:54:49.724Z,58.56
2018-02-04T14:57:21.036Z,54.26
2018-02-04T14:59:53.860Z,54.00
2018-02-04T15:02:25.732Z,56.19
2018-02-04T15:04:56.468Z,54.13
2018-02-04T15:07:27.875Z,55.46
2018-02-04T15:09:58.749Z,54.33
2018-02-04T15:12:29.930Z,53.09
2018-02-04T15:15:00.926Z,54.03
2018-02-04T15:17:32.200Z,53.43
2018-02-04T15:20:03.392Z,53.45
2018-02-04T15:22:34.447Z,52.03
2018-02-04T15:25:05.244Z,53.05
2018-02-04T15:27:36.311Z,52.22
2018-02-04T15:30:07.041Z,54.07
2018-02-04T15:32:38.075Z,53.69
2018-02-04T15:35:09.029Z,54.05
2018-02-04T15:37:40.861Z,53.16
2018-02-04T15:40:11.857Z,54.27
2018-02-04T15:42:43.252Z,53.32
2018-02-04T15:45:14.392Z,51.98
2018-02-04T15:47:45.556Z,51.62
2018-02-04T15:50:16.596Z,51.46
2018-02-04T15:52:47.845Z,52.06
2018-02-04T15:55:19.181Z,52.35
2018-02-04T15:57:50.050Z,51.75
2018-02-04T16:00:22.097Z,51.36
2018-02-04T16:02:53.660Z,52.49
2018-02-04T16:05:24.791Z,53.95
2018-02-04T16:07:55.919Z,56.31
2018-02-04T16:10:27.072Z,56.45
2018-02-04T16:12:58.118Z,56.39
2018-02-04T16:15:29.374Z,54.85
2018-02-04T16:18:00.752Z,56.15
2018-02-04T16:20:32.252Z,56.50
2018-02-04T16:23:03.715Z,56.05
2018-02-04T16:25:35.081Z,55.54
2018-02-04T16:28:06.952Z,55.62
2018-02-04T16:30:38.081Z,53.69
2018-02-04T16:33:08.600Z,52.94
2018-02-04T16:35:39.617Z,52.59
2018-02-04T16:38:10.584Z,52.77
2018-02-04T16:40:41.617Z,50.94
2018-02-04T16:43:13.112Z,51.59
2018-02-04T16:45:44.389Z,51.21
2018-02-04T16:48:15.343Z,49.96
2018-02-04T16:50:46.405Z,48.54
2018-02-04T16:53:18.044Z,48.93
2018-02-04T16:55:49.122Z,49.78
2018-02-04T16:58:20.240Z,50.05
2018-02-04T17:00:51.385Z,47.79
2018-02-04T17:03:22.643Z,48.34
2018-02-04T17:05:53.674Z,49.20
2018-02-04T17:08:25.008Z,49.28
2018-02-04T17:10:56.374Z,47.29
2018-02-04T17:13:27.514Z,47.68
2018-02-04T17:15:58.564Z,48.11
2018-02-04T17:18:29.765Z,46.82
2018-02-04T17:21:01.298Z,46.32
2018-02-04T17:23:32.620Z,47.92
2018-02-04T17:26:03.601Z,48.35
2018-02-04T17:28:35.207Z,46.51
2018-02-04T17:31:06.298Z,46.76
2018-02-04T17:33:37.293Z,46.10
2018-02-04T17:36:08.857Z,44.50
2018-02-04T17:38:40.173Z,43.94
2018-02-04T17:41:11.778Z,43.76
2018-02-04T17:43:43.247Z,43.37
2018-02-04T17:46:14.203Z,42.18
2018-02-04T17:48:46.268Z,41.59
2018-02-04T17:51:17.927Z,41.31
2018-02-04T17:53:49.696Z,41.42
2018-02-04T17:56:21.355Z,40.87
2018-02-04T17:58:52.663Z,39.80
2018-02-04T18:01:24.774Z,38.71
2018-02-04T18:03:55.944Z,38.48
2018-02-04T18:06:27.261Z,37.62
2018-02-04T18:08:58.592Z,37.03
2018-02-04T18:11:29.768Z,37.30
2018-02-04T18:14:00.876Z,38.12
2018-02-04T18:16:32.212Z,38.26
2018-02-04T18:19:03.453Z,37.63
2018-02-04T18:21:34.592Z,37.37
2018-02-04T18:24:05.898Z,37.48
